CRF5 weather

Saskatoon/Richter Field Airport
Saskatoon, Saskatchewan, Canada

Public forecast

Using degrees Celsius for public forecast. Weather courtesy of forecast.io.

Closest aviation weather report (METAR) to Saskatoon/Richter Field Airport

Closest report is Saskatoon John G. Diefenbaker International Airport, 6.6 nm (12.2 km) S. Retrieved 2020/01/23 13:00 UTC (46 minutes ago):

CYXE 231300Z 21007KT 15SM SCT011 OVC030 M05/M06 A2999 RMK SC3SC5 SLP189

Closest aviation forecast (TAF) to Saskatoon/Richter Field Airport

Closest forecast is Saskatoon John G. Diefenbaker International Airport, 6.6 nm (12.2 km) S. Retrieved 2020/01/23 12:42 UTC (1 hour ago):

TAF CYXE 231138Z 2312/2412 18008KT 4SM BR SCT003 OVC006 TEMPO 2312/2316 P6SM NSW SCT006 OVC030 PROB40 2312/2316 3/4SM BR OVC003 FM231600 20008KT P6SM OVC012 TEMPO 2316/2324 OVC025 FM240000 16010KT P6SM SCT008 TEMPO 2400/2404 BKN008 PROB40 2400/2404 1SM BR SCT004 FM240400 16012KT P6SM FEW200 RMK NXT FCST BY 231800Z